sensor_id;sensor_type;location;lat;lon;timestamp;temperature;humidity
10903;DHT22;5504;47.312;11.060;2023-04-06T00:01:42;2.50;67.80
10903;DHT22;5504;47.312;11.060;2023-04-06T00:04:08;2.40;67.70
10903;DHT22;5504;47.312;11.060;2023-04-06T00:06:33;2.50;67.40
10903;DHT22;5504;47.312;11.060;2023-04-06T00:09:00;2.50;67.60
10903;DHT22;5504;47.312;11.060;2023-04-06T00:11:26;2.50;68.00
10903;DHT22;5504;47.312;11.060;2023-04-06T00:13:52;2.50;67.90
10903;DHT22;5504;47.312;11.060;2023-04-06T00:16:18;2.50;67.30
10903;DHT22;5504;47.312;11.060;2023-04-06T00:18:44;2.40;67.30
10903;DHT22;5504;47.312;11.060;2023-04-06T00:21:14;2.50;67.70
10903;DHT22;5504;47.312;11.060;2023-04-06T00:23:41;2.50;67.60
10903;DHT22;5504;47.312;11.060;2023-04-06T00:26:08;2.40;67.70
10903;DHT22;5504;47.312;11.060;2023-04-06T00:28:33;2.30;67.50
10903;DHT22;5504;47.312;11.060;2023-04-06T00:30:59;2.10;68.40
10903;DHT22;5504;47.312;11.060;2023-04-06T00:33:25;2.10;68.40
10903;DHT22;5504;47.312;11.060;2023-04-06T00:35:51;2.20;68.10
10903;DHT22;5504;47.312;11.060;2023-04-06T00:38:17;2.10;68.40
10903;DHT22;5504;47.312;11.060;2023-04-06T00:40:43;2.00;69.10
10903;DHT22;5504;47.312;11.060;2023-04-06T00:43:12;2.00;69.30
10903;DHT22;5504;47.312;11.060;2023-04-06T00:45:41;2.10;69.00
10903;DHT22;5504;47.312;11.060;2023-04-06T00:48:08;2.00;68.70
10903;DHT22;5504;47.312;11.060;2023-04-06T00:50:34;1.90;68.60
10903;DHT22;5504;47.312;11.060;2023-04-06T00:53:01;1.80;69.10
10903;DHT22;5504;47.312;11.060;2023-04-06T00:55:27;1.80;69.70
10903;DHT22;5504;47.312;11.060;2023-04-06T00:57:53;1.80;69.70
10903;DHT22;5504;47.312;11.060;2023-04-06T01:00:19;1.60;69.90
10903;DHT22;5504;47.312;11.060;2023-04-06T01:02:45;1.70;70.10
10903;DHT22;5504;47.312;11.060;2023-04-06T01:05:11;1.70;70.00
10903;DHT22;5504;47.312;11.060;2023-04-06T01:07:37;1.80;70.60
10903;DHT22;5504;47.312;11.060;2023-04-06T01:10:03;1.90;70.60
10903;DHT22;5504;47.312;11.060;2023-04-06T01:12:29;2.10;70.30
10903;DHT22;5504;47.312;11.060;2023-04-06T01:14:55;2.10;70.00
10903;DHT22;5504;47.312;11.060;2023-04-06T01:17:21;2.10;69.80
10903;DHT22;5504;47.312;11.060;2023-04-06T01:19:47;2.10;69.90
10903;DHT22;5504;47.312;11.060;2023-04-06T01:22:18;2.20;69.50
10903;DHT22;5504;47.312;11.060;2023-04-06T01:24:44;2.20;69.40
10903;DHT22;5504;47.312;11.060;2023-04-06T01:27:10;2.00;69.40
10903;DHT22;5504;47.312;11.060;2023-04-06T01:29:36;2.00;70.60
10903;DHT22;5504;47.312;11.060;2023-04-06T01:32:02;2.10;70.40
10903;DHT22;5504;47.312;11.060;2023-04-06T01:34:28;2.20;70.10
10903;DHT22;5504;47.312;11.060;2023-04-06T01:36:54;2.30;70.40
10903;DHT22;5504;47.312;11.060;2023-04-06T01:39:20;2.30;69.80
10903;DHT22;5504;47.312;11.060;2023-04-06T01:41:46;2.50;69.30
10903;DHT22;5504;47.312;11.060;2023-04-06T01:44:18;2.70;70.20
10903;DHT22;5504;47.312;11.060;2023-04-06T01:46:44;2.70;70.50
10903;DHT22;5504;47.312;11.060;2023-04-06T01:49:11;2.60;70.80
10903;DHT22;5504;47.312;11.060;2023-04-06T01:51:37;2.40;70.10
10903;DHT22;5504;47.312;11.060;2023-04-06T01:54:03;2.60;69.50
10903;DHT22;5504;47.312;11.060;2023-04-06T01:56:28;2.80;68.40
10903;DHT22;5504;47.312;11.060;2023-04-06T01:58:54;2.70;69.90
10903;DHT22;5504;47.312;11.060;2023-04-06T02:01:21;2.60;70.40
10903;DHT22;5504;47.312;11.060;2023-04-06T02:03:46;2.60;70.60
10903;DHT22;5504;47.312;11.060;2023-04-06T02:06:12;2.80;70.90
10903;DHT22;5504;47.312;11.060;2023-04-06T02:08:38;2.80;71.30
10903;DHT22;5504;47.312;11.060;2023-04-06T02:11:03;2.60;71.90
10903;DHT22;5504;47.312;11.060;2023-04-06T02:13:29;2.70;71.10
10903;DHT22;5504;47.312;11.060;2023-04-06T02:15:55;2.80;70.50
10903;DHT22;5504;47.312;11.060;2023-04-06T02:18:21;2.90;70.20
10903;DHT22;5504;47.312;11.060;2023-04-06T02:20:47;2.90;70.00
10903;DHT22;5504;47.312;11.060;2023-04-06T02:23:13;2.90;72.10
10903;DHT22;5504;47.312;11.060;2023-04-06T02:25:39;2.80;71.20
10903;DHT22;5504;47.312;11.060;2023-04-06T02:28:05;2.70;71.00
10903;DHT22;5504;47.312;11.060;2023-04-06T02:30:31;2.80;70.80
10903;DHT22;5504;47.312;11.060;2023-04-06T02:33:00;2.80;71.20
10903;DHT22;5504;47.312;11.060;2023-04-06T02:35:28;2.90;71.50
10903;DHT22;5504;47.312;11.060;2023-04-06T02:37:54;3.00;71.10
10903;DHT22;5504;47.312;11.060;2023-04-06T02:40:20;3.00;71.70
10903;DHT22;5504;47.312;11.060;2023-04-06T02:42:45;3.00;72.30
10903;DHT22;5504;47.312;11.060;2023-04-06T02:45:11;2.90;71.20
10903;DHT22;5504;47.312;11.060;2023-04-06T02:47:37;3.00;71.10
10903;DHT22;5504;47.312;11.060;2023-04-06T02:50:03;3.00;70.90
10903;DHT22;5504;47.312;11.060;2023-04-06T02:52:29;3.00;70.40
10903;DHT22;5504;47.312;11.060;2023-04-06T02:54:54;3.10;70.20
10903;DHT22;5504;47.312;11.060;2023-04-06T02:57:20;3.10;70.60
10903;DHT22;5504;47.312;11.060;2023-04-06T02:59:46;3.20;69.80
10903;DHT22;5504;47.312;11.060;2023-04-06T03:02:12;3.20;69.00
10903;DHT22;5504;47.312;11.060;2023-04-06T03:04:37;3.10;69.60
10903;DHT22;5504;47.312;11.060;2023-04-06T03:07:03;3.10;69.90
10903;DHT22;5504;47.312;11.060;2023-04-06T03:09:29;3.00;71.60
10903;DHT22;5504;47.312;11.060;2023-04-06T03:11:54;2.80;71.60
10903;DHT22;5504;47.312;11.060;2023-04-06T03:14:20;2.90;71.30
10903;DHT22;5504;47.312;11.060;2023-04-06T03:16:48;2.90;70.90
10903;DHT22;5504;47.312;11.060;2023-04-06T03:19:14;3.00;70.60
10903;DHT22;5504;47.312;11.060;2023-04-06T03:21:40;3.00;70.80
10903;DHT22;5504;47.312;11.060;2023-04-06T03:24:07;3.10;69.90
10903;DHT22;5504;47.312;11.060;2023-04-06T03:26:33;3.10;69.70
10903;DHT22;5504;47.312;11.060;2023-04-06T03:28:58;3.20;69.20
10903;DHT22;5504;47.312;11.060;2023-04-06T03:31:26;3.10;68.90
10903;DHT22;5504;47.312;11.060;2023-04-06T03:33:52;3.00;70.50
10903;DHT22;5504;47.312;11.060;2023-04-06T03:36:17;2.90;71.00
10903;DHT22;5504;47.312;11.060;2023-04-06T03:38:43;2.80;70.90
10903;DHT22;5504;47.312;11.060;2023-04-06T03:41:09;2.90;71.30
10903;DHT22;5504;47.312;11.060;2023-04-06T03:43:35;3.00;70.30
10903;DHT22;5504;47.312;11.060;2023-04-06T03:46:01;2.90;71.70
10903;DHT22;5504;47.312;11.060;2023-04-06T03:48:26;2.80;71.70
10903;DHT22;5504;47.312;11.060;2023-04-06T03:50:52;2.80;71.00
10903;DHT22;5504;47.312;11.060;2023-04-06T03:53:18;2.90;71.60
10903;DHT22;5504;47.312;11.060;2023-04-06T03:55:44;3.00;71.30
10903;DHT22;5504;47.312;11.060;2023-04-06T03:58:09;3.00;71.30
10903;DHT22;5504;47.312;11.060;2023-04-06T04:00:35;3.00;72.90
10903;DHT22;5504;47.312;11.060;2023-04-06T04:03:01;2.90;73.10
10903;DHT22;5504;47.312;11.060;2023-04-06T04:05:28;2.90;72.70
10903;DHT22;5504;47.312;11.060;2023-04-06T04:07:54;3.00;72.40
10903;DHT22;5504;47.312;11.060;2023-04-06T04:10:19;2.90;71.90
10903;DHT22;5504;47.312;11.060;2023-04-06T04:12:45;3.00;72.00
10903;DHT22;5504;47.312;11.060;2023-04-06T04:15:11;3.00;70.80
10903;DHT22;5504;47.312;11.060;2023-04-06T04:17:36;3.00;70.90
10903;DHT22;5504;47.312;11.060;2023-04-06T04:20:02;3.00;71.20
10903;DHT22;5504;47.312;11.060;2023-04-06T04:22:28;3.00;70.90
10903;DHT22;5504;47.312;11.060;2023-04-06T04:24:54;3.00;71.20
10903;DHT22;5504;47.312;11.060;2023-04-06T04:27:20;3.00;71.20
10903;DHT22;5504;47.312;11.060;2023-04-06T04:29:46;3.00;71.50
10903;DHT22;5504;47.312;11.060;2023-04-06T04:32:11;3.00;71.70
10903;DHT22;5504;47.312;11.060;2023-04-06T04:34:37;3.00;71.00
10903;DHT22;5504;47.312;11.060;2023-04-06T04:37:06;3.00;71.30
10903;DHT22;5504;47.312;11.060;2023-04-06T04:39:32;3.10;71.20
10903;DHT22;5504;47.312;11.060;2023-04-06T04:41:58;3.20;70.60
10903;DHT22;5504;47.312;11.060;2023-04-06T04:44:24;3.10;71.00
10903;DHT22;5504;47.312;11.060;2023-04-06T04:46:49;2.90;72.40
10903;DHT22;5504;47.312;11.060;2023-04-06T04:49:15;2.70;72.20
10903;DHT22;5504;47.312;11.060;2023-04-06T04:51:41;2.60;72.60
10903;DHT22;5504;47.312;11.060;2023-04-06T04:54:06;2.70;73.30
10903;DHT22;5504;47.312;11.060;2023-04-06T04:56:32;2.70;72.70
10903;DHT22;5504;47.312;11.060;2023-04-06T04:58:58;2.80;72.80
10903;DHT22;5504;47.312;11.060;2023-04-06T05:01:24;2.90;73.10
10903;DHT22;5504;47.312;11.060;2023-04-06T05:03:49;3.00;72.80
10903;DHT22;5504;47.312;11.060;2023-04-06T05:06:15;3.00;72.10
10903;DHT22;5504;47.312;11.060;2023-04-06T05:08:42;3.00;71.50
10903;DHT22;5504;47.312;11.060;2023-04-06T05:11:08;3.00;71.70
10903;DHT22;5504;47.312;11.060;2023-04-06T05:13:34;3.00;72.10
10903;DHT22;5504;47.312;11.060;2023-04-06T05:16:00;2.90;72.40
10903;DHT22;5504;47.312;11.060;2023-04-06T05:18:26;2.80;72.60
10903;DHT22;5504;47.312;11.060;2023-04-06T05:20:51;2.80;72.30
10903;DHT22;5504;47.312;11.060;2023-04-06T05:23:17;2.90;72.30
10903;DHT22;5504;47.312;11.060;2023-04-06T05:25:43;2.90;72.50
10903;DHT22;5504;47.312;11.060;2023-04-06T05:28:09;3.10;72.50
10903;DHT22;5504;47.312;11.060;2023-04-06T05:30:35;3.20;71.40
10903;DHT22;5504;47.312;11.060;2023-04-06T05:33:01;3.30;71.00
10903;DHT22;5504;47.312;11.060;2023-04-06T05:35:27;3.30;71.00
10903;DHT22;5504;47.312;11.060;2023-04-06T05:37:53;3.30;71.00
10903;DHT22;5504;47.312;11.060;2023-04-06T05:40:18;3.40;71.70
10903;DHT22;5504;47.312;11.060;2023-04-06T05:42:44;3.40;71.40
10903;DHT22;5504;47.312;11.060;2023-04-06T05:45:11;3.40;71.10
10903;DHT22;5504;47.312;11.060;2023-04-06T05:47:42;3.40;70.80
10903;DHT22;5504;47.312;11.060;2023-04-06T05:50:09;3.50;71.00
10903;DHT22;5504;47.312;11.060;2023-04-06T05:52:35;3.50;70.60
10903;DHT22;5504;47.312;11.060;2023-04-06T05:55:01;3.50;70.10
10903;DHT22;5504;47.312;11.060;2023-04-06T05:57:27;3.50;70.20
10903;DHT22;5504;47.312;11.060;2023-04-06T05:59:53;3.50;70.40
10903;DHT22;5504;47.312;11.060;2023-04-06T06:02:20;3.70;70.50
10903;DHT22;5504;47.312;11.060;2023-04-06T06:04:45;3.70;69.60
10903;DHT22;5504;47.312;11.060;2023-04-06T06:07:11;3.80;70.20
10903;DHT22;5504;47.312;11.060;2023-04-06T06:09:37;4.00;69.50
10903;DHT22;5504;47.312;11.060;2023-04-06T06:12:03;4.40;68.50
10903;DHT22;5504;47.312;11.060;2023-04-06T06:14:28;4.40;67.60
10903;DHT22;5504;47.312;11.060;2023-04-06T06:16:54;4.60;67.00
10903;DHT22;5504;47.312;11.060;2023-04-06T06:19:20;4.90;66.90
10903;DHT22;5504;47.312;11.060;2023-04-06T06:21:46;5.20;65.20
10903;DHT22;5504;47.312;11.060;2023-04-06T06:24:12;5.60;64.60
10903;DHT22;5504;47.312;11.060;2023-04-06T06:26:37;5.90;62.00
10903;DHT22;5504;47.312;11.060;2023-04-06T06:29:05;6.20;61.90
10903;DHT22;5504;47.312;11.060;2023-04-06T06:31:31;6.50;60.70
10903;DHT22;5504;47.312;11.060;2023-04-06T06:33:57;6.40;58.90
10903;DHT22;5504;47.312;11.060;2023-04-06T06:36:23;6.80;59.50
10903;DHT22;5504;47.312;11.060;2023-04-06T06:38:48;7.10;59.30
10903;DHT22;5504;47.312;11.060;2023-04-06T06:41:15;7.70;58.80
10903;DHT22;5504;47.312;11.060;2023-04-06T06:43:41;8.30;57.40
10903;DHT22;5504;47.312;11.060;2023-04-06T06:46:06;8.40;56.50
10903;DHT22;5504;47.312;11.060;2023-04-06T06:48:32;7.20;56.50
10903;DHT22;5504;47.312;11.060;2023-04-06T06:50:58;7.60;58.80
10903;DHT22;5504;47.312;11.060;2023-04-06T06:53:24;8.00;57.70
10903;DHT22;5504;47.312;11.060;2023-04-06T06:55:50;8.00;57.00
10903;DHT22;5504;47.312;11.060;2023-04-06T06:58:18;7.90;57.10
10903;DHT22;5504;47.312;11.060;2023-04-06T07:00:44;8.50;56.70
10903;DHT22;5504;47.312;11.060;2023-04-06T07:03:11;9.20;56.90
10903;DHT22;5504;47.312;11.060;2023-04-06T07:05:37;9.90;55.50
10903;DHT22;5504;47.312;11.060;2023-04-06T07:08:03;9.60;55.00
10903;DHT22;5504;47.312;11.060;2023-04-06T07:10:28;10.00;54.30
10903;DHT22;5504;47.312;11.060;2023-04-06T07:12:54;9.30;54.00
10903;DHT22;5504;47.312;11.060;2023-04-06T07:15:20;9.00;54.80
10903;DHT22;5504;47.312;11.060;2023-04-06T07:17:46;9.90;55.40
10903;DHT22;5504;47.312;11.060;2023-04-06T07:20:12;10.80;53.90
10903;DHT22;5504;47.312;11.060;2023-04-06T07:22:39;10.90;52.90
10903;DHT22;5504;47.312;11.060;2023-04-06T07:25:05;11.40;52.50
10903;DHT22;5504;47.312;11.060;2023-04-06T07:27:31;11.40;50.60
10903;DHT22;5504;47.312;11.060;2023-04-06T07:29:57;9.70;50.90
10903;DHT22;5504;47.312;11.060;2023-04-06T07:32:22;10.10;52.60
10903;DHT22;5504;47.312;11.060;2023-04-06T07:34:48;9.70;51.60
10903;DHT22;5504;47.312;11.060;2023-04-06T07:37:14;8.80;53.40
10903;DHT22;5504;47.312;11.060;2023-04-06T07:39:40;9.60;54.50
10903;DHT22;5504;47.312;11.060;2023-04-06T07:42:05;10.30;52.70
10903;DHT22;5504;47.312;11.060;2023-04-06T07:44:31;11.20;50.90
10903;DHT22;5504;47.312;11.060;2023-04-06T07:46:57;11.40;50.70
10903;DHT22;5504;47.312;11.060;2023-04-06T07:49:23;11.80;51.00
10903;DHT22;5504;47.312;11.060;2023-04-06T07:51:48;11.80;48.70
10903;DHT22;5504;47.312;11.060;2023-04-06T07:54:14;10.60;52.20
10903;DHT22;5504;47.312;11.060;2023-04-06T07:56:40;11.30;52.30
10903;DHT22;5504;47.312;11.060;2023-04-06T07:59:06;10.50;50.70
10903;DHT22;5504;47.312;11.060;2023-04-06T08:01:31;10.90;51.80
10903;DHT22;5504;47.312;11.060;2023-04-06T08:03:57;10.80;51.10
10903;DHT22;5504;47.312;11.060;2023-04-06T08:06:23;9.50;51.80
10903;DHT22;5504;47.312;11.060;2023-04-06T08:08:49;10.60;54.00
10903;DHT22;5504;47.312;11.060;2023-04-06T08:11:15;11.50;52.90
10903;DHT22;5504;47.312;11.060;2023-04-06T08:13:41;12.00;52.30
10903;DHT22;5504;47.312;11.060;2023-04-06T08:16:06;12.60;51.10
10903;DHT22;5504;47.312;11.060;2023-04-06T08:18:32;12.90;50.30
10903;DHT22;5504;47.312;11.060;2023-04-06T08:20:58;11.30;46.30
10903;DHT22;5504;47.312;11.060;2023-04-06T08:23:24;11.70;50.50
10903;DHT22;5504;47.312;11.060;2023-04-06T08:25:49;13.20;49.80
10903;DHT22;5504;47.312;11.060;2023-04-06T08:28:15;12.10;47.80
10903;DHT22;5504;47.312;11.060;2023-04-06T08:30:42;10.10;48.60
10903;DHT22;5504;47.312;11.060;2023-04-06T08:33:08;10.70;49.60
10903;DHT22;5504;47.312;11.060;2023-04-06T08:35:34;11.80;51.30
10903;DHT22;5504;47.312;11.060;2023-04-06T08:38:01;12.80;51.20
10903;DHT22;5504;47.312;11.060;2023-04-06T08:40:27;12.10;47.30
10903;DHT22;5504;47.312;11.060;2023-04-06T08:42:55;12.10;47.30
10903;DHT22;5504;47.312;11.060;2023-04-06T08:45:22;12.60;51.60
10903;DHT22;5504;47.312;11.060;2023-04-06T08:47:51;13.90;50.60
10903;DHT22;5504;47.312;11.060;2023-04-06T08:50:18;13.70;47.40
10903;DHT22;5504;47.312;11.060;2023-04-06T08:52:47;11.80;49.30
10903;DHT22;5504;47.312;11.060;2023-04-06T08:55:13;12.30;49.40
10903;DHT22;5504;47.312;11.060;2023-04-06T08:57:39;13.10;50.20
10903;DHT22;5504;47.312;11.060;2023-04-06T09:00:08;11.40;47.40
10903;DHT22;5504;47.312;11.060;2023-04-06T09:02:38;11.20;49.30
10903;DHT22;5504;47.312;11.060;2023-04-06T09:05:04;11.30;49.60
10903;DHT22;5504;47.312;11.060;2023-04-06T09:07:30;12.60;50.80
10903;DHT22;5504;47.312;11.060;2023-04-06T09:09:56;13.20;49.30
10903;DHT22;5504;47.312;11.060;2023-04-06T09:12:26;14.30;50.10
10903;DHT22;5504;47.312;11.060;2023-04-06T09:14:52;13.20;44.70
10903;DHT22;5504;47.312;11.060;2023-04-06T09:17:29;13.80;45.60
10903;DHT22;5504;47.312;11.060;2023-04-06T09:19:55;15.20;42.80
10903;DHT22;5504;47.312;11.060;2023-04-06T09:22:21;15.10;41.60
10903;DHT22;5504;47.312;11.060;2023-04-06T09:24:52;13.20;43.70
10903;DHT22;5504;47.312;11.060;2023-04-06T09:27:31;12.50;42.50
10903;DHT22;5504;47.312;11.060;2023-04-06T09:30:08;12.20;43.90
10903;DHT22;5504;47.312;11.060;2023-04-06T09:32:55;13.10;44.20
10903;DHT22;5504;47.312;11.060;2023-04-06T09:35:21;14.10;45.40
10903;DHT22;5504;47.312;11.060;2023-04-06T09:37:48;15.30;45.10
10903;DHT22;5504;47.312;11.060;2023-04-06T09:40:15;15.00;42.20
10903;DHT22;5504;47.312;11.060;2023-04-06T09:42:44;13.60;42.50
10903;DHT22;5504;47.312;11.060;2023-04-06T09:45:11;14.60;43.10
10903;DHT22;5504;47.312;11.060;2023-04-06T09:47:37;15.90;44.00
10903;DHT22;5504;47.312;11.060;2023-04-06T09:50:03;16.90;39.80
10903;DHT22;5504;47.312;11.060;2023-04-06T09:52:33;17.30;39.30
10903;DHT22;5504;47.312;11.060;2023-04-06T09:55:05;18.20;41.60
10903;DHT22;5504;47.312;11.060;2023-04-06T09:57:52;19.50;34.90
10903;DHT22;5504;47.312;11.060;2023-04-06T10:00:22;18.90;33.60
10903;DHT22;5504;47.312;11.060;2023-04-06T10:08:09;18.40;38.80
10903;DHT22;5504;47.312;11.060;2023-04-06T10:10:36;15.90;33.30
10903;DHT22;5504;47.312;11.060;2023-04-06T10:13:03;16.40;39.30
10903;DHT22;5504;47.312;11.060;2023-04-06T10:15:29;15.20;34.90
10903;DHT22;5504;47.312;11.060;2023-04-06T10:17:57;13.40;36.10
10903;DHT22;5504;47.312;11.060;2023-04-06T10:23:12;15.00;37.80
10903;DHT22;5504;47.312;11.060;2023-04-06T10:25:55;15.80;38.50
10903;DHT22;5504;47.312;11.060;2023-04-06T10:28:22;16.40;37.40
10903;DHT22;5504;47.312;11.060;2023-04-06T10:30:48;14.70;35.40
10903;DHT22;5504;47.312;11.060;2023-04-06T10:33:20;15.80;35.70
10903;DHT22;5504;47.312;11.060;2023-04-06T10:35:46;16.30;36.10
10903;DHT22;5504;47.312;11.060;2023-04-06T10:38:12;15.90;36.00
10903;DHT22;5504;47.312;11.060;2023-04-06T10:40:41;16.40;38.30
10903;DHT22;5504;47.312;11.060;2023-04-06T10:43:18;16.50;37.60
10903;DHT22;5504;47.312;11.060;2023-04-06T10:45:44;16.50;37.00
10903;DHT22;5504;47.312;11.060;2023-04-06T10:48:17;16.20;36.90
10903;DHT22;5504;47.312;11.060;2023-04-06T10:50:50;15.90;34.70
10903;DHT22;5504;47.312;11.060;2023-04-06T10:53:27;16.60;38.40
10903;DHT22;5504;47.312;11.060;2023-04-06T10:55:56;17.10;36.10
10903;DHT22;5504;47.312;11.060;2023-04-06T10:58:26;17.20;34.30
10903;DHT22;5504;47.312;11.060;2023-04-06T11:00:52;14.70;33.70
10903;DHT22;5504;47.312;11.060;2023-04-06T11:03:19;14.60;38.00
10903;DHT22;5504;47.312;11.060;2023-04-06T11:05:46;15.50;36.30
10903;DHT22;5504;47.312;11.060;2023-04-06T11:08:32;16.10;36.10
10903;DHT22;5504;47.312;11.060;2023-04-06T11:11:08;16.10;35.10
10903;DHT22;5504;47.312;11.060;2023-04-06T11:13:55;16.60;36.40
10903;DHT22;5504;47.312;11.060;2023-04-06T11:16:21;14.90;35.70
10903;DHT22;5504;47.312;11.060;2023-04-06T11:18:58;15.90;36.70
10903;DHT22;5504;47.312;11.060;2023-04-06T11:24:22;17.70;36.80
10903;DHT22;5504;47.312;11.060;2023-04-06T11:29:16;18.50;35.80
10903;DHT22;5504;47.312;11.060;2023-04-06T11:31:46;18.90;35.20
10903;DHT22;5504;47.312;11.060;2023-04-06T11:34:22;17.30;31.00
10903;DHT22;5504;47.312;11.060;2023-04-06T11:36:56;18.30;34.90
10903;DHT22;5504;47.312;11.060;2023-04-06T11:39:24;18.70;34.50
10903;DHT22;5504;47.312;11.060;2023-04-06T11:41:57;18.50;33.10
10903;DHT22;5504;47.312;11.060;2023-04-06T11:44:35;18.80;31.70
10903;DHT22;5504;47.312;11.060;2023-04-06T11:47:03;17.70;32.40
10903;DHT22;5504;47.312;11.060;2023-04-06T11:49:30;18.80;31.90
10903;DHT22;5504;47.312;11.060;2023-04-06T11:51:56;18.10;30.60
10903;DHT22;5504;47.312;11.060;2023-04-06T11:54:36;16.90;33.60
10903;DHT22;5504;47.312;11.060;2023-04-06T11:57:07;14.80;33.90
10903;DHT22;5504;47.312;11.060;2023-04-06T11:59:34;16.00;36.00
10903;DHT22;5504;47.312;11.060;2023-04-06T12:02:03;16.70;36.30
10903;DHT22;5504;47.312;11.060;2023-04-06T12:04:29;18.20;34.40
10903;DHT22;5504;47.312;11.060;2023-04-06T12:06:56;19.50;35.10
10903;DHT22;5504;47.312;11.060;2023-04-06T12:09:22;19.10;30.90
10903;DHT22;5504;47.312;11.060;2023-04-06T12:11:48;19.10;33.80
10903;DHT22;5504;47.312;11.060;2023-04-06T12:14:14;17.00;30.70
10903;DHT22;5504;47.312;11.060;2023-04-06T12:16:40;16.30;34.70
10903;DHT22;5504;47.312;11.060;2023-04-06T12:19:06;17.20;33.40
10903;DHT22;5504;47.312;11.060;2023-04-06T12:21:34;18.10;37.80
10903;DHT22;5504;47.312;11.060;2023-04-06T12:24:02;18.80;34.50
10903;DHT22;5504;47.312;11.060;2023-04-06T12:26:29;19.20;33.10
10903;DHT22;5504;47.312;11.060;2023-04-06T12:28:55;19.60;33.80
10903;DHT22;5504;47.312;11.060;2023-04-06T12:31:22;19.90;34.60
10903;DHT22;5504;47.312;11.060;2023-04-06T12:33:51;20.50;31.00
10903;DHT22;5504;47.312;11.060;2023-04-06T12:36:18;20.70;34.20
10903;DHT22;5504;47.312;11.060;2023-04-06T12:38:48;19.30;30.80
10903;DHT22;5504;47.312;11.060;2023-04-06T12:41:15;19.60;31.70
10903;DHT22;5504;47.312;11.060;2023-04-06T12:43:42;19.40;33.60
10903;DHT22;5504;47.312;11.060;2023-04-06T12:46:08;18.40;31.40
10903;DHT22;5504;47.312;11.060;2023-04-06T12:48:34;19.40;32.70
10903;DHT22;5504;47.312;11.060;2023-04-06T12:51:03;20.10;31.50
10903;DHT22;5504;47.312;11.060;2023-04-06T12:53:29;20.20;33.60
10903;DHT22;5504;47.312;11.060;2023-04-06T12:55:55;19.30;31.90
10903;DHT22;5504;47.312;11.060;2023-04-06T12:58:24;19.90;33.30
10903;DHT22;5504;47.312;11.060;2023-04-06T13:00:54;20.10;31.10
10903;DHT22;5504;47.312;11.060;2023-04-06T13:03:21;20.60;31.00
10903;DHT22;5504;47.312;11.060;2023-04-06T13:05:48;20.30;29.50
10903;DHT22;5504;47.312;11.060;2023-04-06T13:08:15;18.20;32.80
10903;DHT22;5504;47.312;11.060;2023-04-06T13:10:48;18.50;33.50
10903;DHT22;5504;47.312;11.060;2023-04-06T13:13:15;18.50;33.80
10903;DHT22;5504;47.312;11.060;2023-04-06T13:15:41;18.70;31.90
10903;DHT22;5504;47.312;11.060;2023-04-06T13:18:07;18.80;35.10
10903;DHT22;5504;47.312;11.060;2023-04-06T13:20:33;19.30;33.30
10903;DHT22;5504;47.312;11.060;2023-04-06T13:22:59;19.60;31.70
10903;DHT22;5504;47.312;11.060;2023-04-06T13:25:25;18.70;31.10
10903;DHT22;5504;47.312;11.060;2023-04-06T13:27:50;18.90;33.50
10903;DHT22;5504;47.312;11.060;2023-04-06T13:30:16;18.70;32.80
10903;DHT22;5504;47.312;11.060;2023-04-06T13:32:42;18.60;32.00
10903;DHT22;5504;47.312;11.060;2023-04-06T13:35:08;18.20;30.90
10903;DHT22;5504;47.312;11.060;2023-04-06T13:37:35;18.10;34.90
10903;DHT22;5504;47.312;11.060;2023-04-06T13:40:04;17.90;30.60
10903;DHT22;5504;47.312;11.060;2023-04-06T13:42:31;18.10;31.40
10903;DHT22;5504;47.312;11.060;2023-04-06T13:44:57;18.30;32.50
10903;DHT22;5504;47.312;11.060;2023-04-06T13:47:23;18.30;33.80
10903;DHT22;5504;47.312;11.060;2023-04-06T13:49:52;17.80;32.40
10903;DHT22;5504;47.312;11.060;2023-04-06T13:52:19;17.70;34.20
10903;DHT22;5504;47.312;11.060;2023-04-06T13:54:45;17.70;34.10
10903;DHT22;5504;47.312;11.060;2023-04-06T13:57:11;17.50;33.80
10903;DHT22;5504;47.312;11.060;2023-04-06T13:59:38;17.40;31.80
10903;DHT22;5504;47.312;11.060;2023-04-06T14:02:06;17.50;32.10
10903;DHT22;5504;47.312;11.060;2023-04-06T14:04:32;17.20;30.80
10903;DHT22;5504;47.312;11.060;2023-04-06T14:07:00;16.80;31.90
10903;DHT22;5504;47.312;11.060;2023-04-06T14:09:26;16.60;31.80
10903;DHT22;5504;47.312;11.060;2023-04-06T14:11:53;16.50;33.30
10903;DHT22;5504;47.312;11.060;2023-04-06T14:14:19;16.40;31.80
10903;DHT22;5504;47.312;11.060;2023-04-06T14:16:44;16.70;32.80
10903;DHT22;5504;47.312;11.060;2023-04-06T14:19:11;16.80;32.60
10903;DHT22;5504;47.312;11.060;2023-04-06T14:21:40;17.10;33.70
10903;DHT22;5504;47.312;11.060;2023-04-06T14:24:09;15.70;30.80
10903;DHT22;5504;47.312;11.060;2023-04-06T14:26:36;15.70;34.70
10903;DHT22;5504;47.312;11.060;2023-04-06T14:29:03;15.90;33.40
10903;DHT22;5504;47.312;11.060;2023-04-06T14:31:29;15.80;31.50
10903;DHT22;5504;47.312;11.060;2023-04-06T14:33:56;15.60;30.60
10903;DHT22;5504;47.312;11.060;2023-04-06T14:36:22;15.30;30.30
10903;DHT22;5504;47.312;11.060;2023-04-06T14:38:48;15.00;31.10
10903;DHT22;5504;47.312;11.060;2023-04-06T14:41:18;15.00;31.40
10903;DHT22;5504;47.312;11.060;2023-04-06T14:43:45;15.00;31.70
10903;DHT22;5504;47.312;11.060;2023-04-06T14:46:11;16.30;33.80
10903;DHT22;5504;47.312;11.060;2023-04-06T14:48:36;15.80;31.00
10903;DHT22;5504;47.312;11.060;2023-04-06T14:51:02;15.20;31.70
10903;DHT22;5504;47.312;11.060;2023-04-06T14:53:29;16.30;34.20
10903;DHT22;5504;47.312;11.060;2023-04-06T14:55:55;16.90;31.10
10903;DHT22;5504;47.312;11.060;2023-04-06T14:58:22;16.30;31.50
10903;DHT22;5504;47.312;11.060;2023-04-06T15:00:48;15.90;30.50
10903;DHT22;5504;47.312;11.060;2023-04-06T15:03:15;15.90;32.70
10903;DHT22;5504;47.312;11.060;2023-04-06T15:05:41;15.50;33.70
10903;DHT22;5504;47.312;11.060;2023-04-06T15:08:07;14.10;32.80
10903;DHT22;5504;47.312;11.060;2023-04-06T15:10:35;14.40;32.80
10903;DHT22;5504;47.312;11.060;2023-04-06T15:13:01;15.20;32.80
10903;DHT22;5504;47.312;11.060;2023-04-06T15:15:28;16.30;34.30
10903;DHT22;5504;47.312;11.060;2023-04-06T15:17:54;16.70;33.00
10903;DHT22;5504;47.312;11.060;2023-04-06T15:20:20;16.80;31.70
10903;DHT22;5504;47.312;11.060;2023-04-06T15:22:45;16.70;32.40
10903;DHT22;5504;47.312;11.060;2023-04-06T15:25:11;14.90;30.10
10903;DHT22;5504;47.312;11.060;2023-04-06T15:27:37;14.60;32.80
10903;DHT22;5504;47.312;11.060;2023-04-06T15:30:03;15.60;34.60
10903;DHT22;5504;47.312;11.060;2023-04-06T15:32:29;15.80;33.40
10903;DHT22;5504;47.312;11.060;2023-04-06T15:34:59;16.60;33.30
10903;DHT22;5504;47.312;11.060;2023-04-06T15:37:25;17.00;33.10
10903;DHT22;5504;47.312;11.060;2023-04-06T15:39:51;17.00;32.40
10903;DHT22;5504;47.312;11.060;2023-04-06T15:42:17;16.70;30.80
10903;DHT22;5504;47.312;11.060;2023-04-06T15:44:43;17.00;33.00
10903;DHT22;5504;47.312;11.060;2023-04-06T15:47:09;17.10;32.10
10903;DHT22;5504;47.312;11.060;2023-04-06T15:49:34;15.00;30.60